createdAt,value
2023-01-31T00:00:20.593Z,100926.91
2023-01-31T00:02:50.270Z,100922.75
2023-01-31T00:05:20.506Z,100933.94
2023-01-31T00:07:49.067Z,100941.56
2023-01-31T00:10:18.092Z,100945.88
2023-01-31T00:12:46.362Z,100951.16
2023-01-31T00:15:16.576Z,100942.25
2023-01-31T00:17:45.310Z,100938.97
2023-01-31T00:20:15.219Z,100936.38
2023-01-31T00:22:43.555Z,100945.28
2023-01-31T00:25:11.871Z,100947.28
2023-01-31T00:27:40.204Z,100949.72
2023-01-31T00:30:10.925Z,100932.09
2023-01-31T00:32:39.247Z,100951.38
2023-01-31T00:35:08.432Z,100938.09
2023-01-31T00:37:38.228Z,100935.38
2023-01-31T00:40:08.691Z,100947.72
2023-01-31T00:42:36.959Z,100951.00
2023-01-31T00:45:06.216Z,100941.63
2023-01-31T00:47:35.167Z,100949.88
2023-01-31T00:50:04.060Z,100939.25
2023-01-31T00:52:32.466Z,100951.81
2023-01-31T00:55:02.156Z,100964.06
2023-01-31T00:57:30.420Z,100976.38
2023-01-31T00:59:58.786Z,100983.72
2023-01-31T01:02:27.152Z,100980.78
2023-01-31T01:04:55.363Z,100991.72
2023-01-31T01:07:23.616Z,100992.47
2023-01-31T01:09:52.520Z,100999.22
2023-01-31T01:12:22.144Z,101003.56
2023-01-31T01:14:50.443Z,101003.84
2023-01-31T01:17:18.873Z,101016.97
2023-01-31T01:19:47.183Z,100996.91
2023-01-31T01:22:16.257Z,101018.47
2023-01-31T01:24:45.079Z,101017.09
2023-01-31T01:27:14.651Z,101028.75
2023-01-31T01:29:44.363Z,101023.72
2023-01-31T01:32:12.845Z,101026.22
2023-01-31T01:34:41.180Z,101016.81
2023-01-31T01:37:12.056Z,101033.41
2023-01-31T01:39:40.427Z,101030.47
2023-01-31T01:42:16.336Z,101037.75
2023-01-31T01:44:52.258Z,101048.66
2023-01-31T01:47:36.491Z,101052.00
2023-01-31T01:50:14.391Z,101060.00
2023-01-31T01:52:48.823Z,101061.31
2023-01-31T01:55:25.942Z,101055.34
2023-01-31T01:57:59.104Z,101060.88
2023-01-31T02:00:31.542Z,101067.50
2023-01-31T02:03:05.841Z,101073.63
2023-01-31T02:05:38.587Z,101083.59
2023-01-31T02:08:07.108Z,101084.66
2023-01-31T02:10:45.037Z,101094.47
2023-01-31T02:13:14.178Z,101086.78
2023-01-31T02:15:44.618Z,101090.34
2023-01-31T02:18:14.110Z,101104.28
2023-01-31T02:21:37.047Z,101101.78
2023-01-31T02:24:49.208Z,101089.66
2023-01-31T02:27:47.754Z,101089.50
2023-01-31T02:31:00.331Z,101084.91
2023-01-31T02:33:39.726Z,101098.84
2023-01-31T02:36:26.865Z,101108.53
2023-01-31T02:39:08.467Z,101104.16
2023-01-31T02:41:46.853Z,101110.38
2023-01-31T02:44:39.723Z,101109.47
2023-01-31T02:47:20.915Z,101114.88
2023-01-31T02:49:57.366Z,101112.91
2023-01-31T02:52:47.488Z,101113.25
2023-01-31T02:55:41.131Z,101120.06
2023-01-31T02:58:14.884Z,101119.53
2023-01-31T03:00:47.913Z,101107.66
2023-01-31T03:03:23.811Z,101121.13
2023-01-31T03:06:54.889Z,101117.25
2023-01-31T03:09:36.712Z,101110.31
2023-01-31T03:12:48.426Z,101117.34
2023-01-31T03:15:51.670Z,101118.13
2023-01-31T03:18:25.967Z,101112.81
2023-01-31T03:21:04.687Z,101113.97
2023-01-31T03:23:38.417Z,101115.31
2023-01-31T03:26:09.133Z,101122.84
2023-01-31T03:28:42.243Z,101133.59
2023-01-31T03:31:20.191Z,101129.22
2023-01-31T03:33:53.743Z,101125.84
2023-01-31T03:36:31.527Z,101113.84
2023-01-31T03:39:15.483Z,101131.75
2023-01-31T03:41:59.837Z,101135.06
2023-01-31T03:44:40.653Z,101129.00
2023-01-31T03:47:19.121Z,101132.19
2023-01-31T03:49:50.529Z,101119.66
2023-01-31T03:52:26.889Z,101122.19
2023-01-31T03:55:05.901Z,101128.94
2023-01-31T03:57:40.386Z,101126.94
2023-01-31T04:00:15.282Z,101131.28
2023-01-31T04:02:44.305Z,101111.03
2023-01-31T04:05:19.442Z,101111.63
2023-01-31T04:07:48.266Z,101096.69
2023-01-31T04:10:20.880Z,101107.47
2023-01-31T04:12:48.999Z,101112.09
2023-01-31T04:15:17.511Z,101119.25
2023-01-31T04:17:46.232Z,101125.22
2023-01-31T04:20:14.668Z,101132.03
2023-01-31T04:22:43.186Z,101122.94
2023-01-31T04:25:12.584Z,101126.28
2023-01-31T04:27:42.293Z,101127.00
2023-01-31T04:30:12.242Z,101129.44
2023-01-31T04:32:40.510Z,101122.28
2023-01-31T04:35:10.241Z,101130.03
2023-01-31T04:37:38.595Z,101114.97
2023-01-31T04:40:09.866Z,101119.19
2023-01-31T04:42:38.266Z,101129.81
2023-01-31T04:45:09.660Z,101131.69
2023-01-31T04:47:37.983Z,101136.94
2023-01-31T04:50:07.903Z,101133.31
2023-01-31T04:52:37.124Z,101135.09
2023-01-31T04:55:06.176Z,101135.63
2023-01-31T04:57:34.479Z,101132.06
2023-01-31T05:00:02.780Z,101129.47
2023-01-31T05:02:33.814Z,101136.56
2023-01-31T05:05:02.950Z,101119.00
2023-01-31T05:07:31.537Z,101130.31
2023-01-31T05:09:59.856Z,101130.31
2023-01-31T05:12:28.582Z,101131.19
2023-01-31T05:14:56.859Z,101130.59
2023-01-31T05:17:29.717Z,101126.38
2023-01-31T05:19:59.594Z,101131.69
2023-01-31T05:22:28.365Z,101135.97
2023-01-31T05:24:58.350Z,101135.31
2023-01-31T05:27:27.437Z,101127.31
2023-01-31T05:29:56.028Z,101138.84
2023-01-31T05:32:24.395Z,101130.59
2023-01-31T05:34:52.641Z,101123.66
2023-01-31T05:37:22.354Z,101126.44
2023-01-31T05:39:51.101Z,101121.25
2023-01-31T05:42:19.433Z,101115.13
2023-01-31T05:44:48.114Z,101120.44
2023-01-31T05:47:16.439Z,101118.53
2023-01-31T05:49:44.713Z,101112.31
2023-01-31T05:52:13.030Z,101108.66
2023-01-31T05:54:42.779Z,101113.09
2023-01-31T05:57:11.041Z,101107.81
2023-01-31T05:59:39.362Z,101113.22
2023-01-31T06:02:08.775Z,101097.19
2023-01-31T06:04:37.102Z,101105.91
2023-01-31T06:07:05.761Z,101109.53
2023-01-31T06:09:34.038Z,101114.84
2023-01-31T06:12:03.639Z,101104.34
2023-01-31T06:14:33.172Z,101109.81
2023-01-31T06:17:01.455Z,101112.53
2023-01-31T06:19:29.735Z,101109.06
2023-01-31T06:21:58.219Z,101115.13
2023-01-31T06:24:26.831Z,101119.09
2023-01-31T06:26:55.122Z,101117.53
2023-01-31T06:29:24.840Z,101118.50
2023-01-31T06:31:54.010Z,101115.19
2023-01-31T06:34:22.467Z,101119.38
2023-01-31T06:36:50.800Z,101100.94
2023-01-31T06:39:19.071Z,101101.81
2023-01-31T06:41:47.393Z,101101.59
2023-01-31T06:44:17.249Z,101107.72
2023-01-31T06:46:46.956Z,101114.72
2023-01-31T06:49:15.268Z,101110.28
2023-01-31T06:51:43.559Z,101099.47
2023-01-31T06:54:11.842Z,101102.91
2023-01-31T06:56:40.159Z,101111.66
2023-01-31T06:59:08.461Z,101104.50
2023-01-31T07:01:37.026Z,101101.84
2023-01-31T07:04:07.056Z,101107.81
2023-01-31T07:06:35.575Z,101107.66
2023-01-31T07:09:04.533Z,101111.22
2023-01-31T07:11:32.947Z,101108.44
2023-01-31T07:14:01.217Z,101112.94
2023-01-31T07:16:30.149Z,101104.00
2023-01-31T07:18:58.641Z,101113.59
2023-01-31T07:21:30.193Z,101105.16
2023-01-31T07:23:58.614Z,101100.59
2023-01-31T07:26:27.004Z,101098.91
2023-01-31T07:28:55.640Z,101101.19
2023-01-31T07:31:23.963Z,101091.16
2023-01-31T07:33:52.293Z,101085.72
2023-01-31T07:36:26.412Z,101083.69
2023-01-31T07:38:58.198Z,101087.91
2023-01-31T07:41:26.956Z,101084.97
2023-01-31T07:43:55.361Z,101071.84
2023-01-31T07:46:23.693Z,101073.44
2023-01-31T07:48:52.064Z,101071.34
2023-01-31T07:51:20.337Z,101063.53
2023-01-31T07:53:49.097Z,101058.28
2023-01-31T07:56:21.482Z,101051.88
2023-01-31T07:58:51.585Z,101045.56
2023-01-31T08:01:40.391Z,101043.78
2023-01-31T08:04:21.757Z,101034.88
2023-01-31T08:06:55.279Z,101040.91
2023-01-31T08:09:24.997Z,101039.03
2023-01-31T08:11:54.701Z,101033.16
2023-01-31T08:14:25.460Z,101023.59
2023-01-31T08:16:54.399Z,101028.28
2023-01-31T08:19:22.972Z,101019.88
2023-01-31T08:21:51.384Z,101010.03
2023-01-31T08:24:19.679Z,101004.72
2023-01-31T08:26:48.076Z,101006.13
2023-01-31T08:29:17.735Z,100993.47
2023-01-31T08:31:46.277Z,100985.38
2023-01-31T08:34:14.756Z,100982.53
2023-01-31T08:36:44.466Z,100976.09
2023-01-31T08:39:13.163Z,100968.81
2023-01-31T08:41:41.485Z,100961.75
2023-01-31T08:44:09.748Z,100964.44
2023-01-31T08:46:39.492Z,100945.22
2023-01-31T08:49:09.084Z,100953.78
2023-01-31T08:51:37.574Z,100954.53
2023-01-31T08:54:06.173Z,100946.63
2023-01-31T08:56:34.560Z,100950.81
2023-01-31T08:59:02.845Z,100940.25
2023-01-31T09:01:32.790Z,100939.72
2023-01-31T09:04:02.486Z,100934.97
2023-01-31T09:06:31.131Z,100929.06
2023-01-31T09:09:00.009Z,100926.16
2023-01-31T09:11:30.760Z,100914.88
2023-01-31T09:13:59.344Z,100917.59
2023-01-31T09:16:27.872Z,100884.34
2023-01-31T09:18:57.106Z,100896.06
2023-01-31T09:21:27.851Z,100890.91
2023-01-31T09:23:58.874Z,100888.06
2023-01-31T09:26:27.473Z,100902.94
2023-01-31T09:28:57.879Z,100896.50
2023-01-31T09:31:26.586Z,100879.97
2023-01-31T09:33:55.807Z,100876.44
2023-01-31T09:36:27.857Z,100868.00
2023-01-31T09:38:58.265Z,100875.53
2023-01-31T09:41:35.064Z,100866.06
2023-01-31T09:44:11.888Z,100856.88
2023-01-31T09:46:46.977Z,100864.53
2023-01-31T09:49:24.616Z,100857.25
2023-01-31T09:52:01.255Z,100844.28
2023-01-31T09:54:36.610Z,100848.72
2023-01-31T09:57:26.834Z,100837.03
2023-01-31T10:00:11.290Z,100833.44
2023-01-31T10:03:14.881Z,100823.13
2023-01-31T10:05:52.149Z,100819.69
2023-01-31T10:08:39.821Z,100819.50
2023-01-31T10:11:16.110Z,100820.28
2023-01-31T10:13:51.536Z,100818.81
2023-01-31T10:16:30.670Z,100809.84
2023-01-31T10:19:07.329Z,100799.44
2023-01-31T10:21:43.661Z,100799.03
2023-01-31T10:24:24.179Z,100786.88
2023-01-31T10:26:56.668Z,100781.53
2023-01-31T10:29:29.441Z,100778.88
2023-01-31T10:32:04.928Z,100770.31
2023-01-31T10:34:41.803Z,100755.06
2023-01-31T10:37:26.159Z,100768.53
2023-01-31T10:40:02.536Z,100751.97
2023-01-31T10:42:34.333Z,100751.03
2023-01-31T10:45:17.055Z,100742.97
2023-01-31T10:47:52.373Z,100733.38
2023-01-31T10:50:33.171Z,100722.47
2023-01-31T10:53:30.935Z,100726.34
2023-01-31T10:56:08.625Z,100722.41
2023-01-31T10:58:39.038Z,100711.59
2023-01-31T11:01:12.108Z,100713.50
2023-01-31T11:03:42.176Z,100711.78
2023-01-31T11:06:14.056Z,100711.94
2023-01-31T11:08:47.155Z,100694.44
2023-01-31T11:11:19.276Z,100685.53
2023-01-31T11:14:00.482Z,100674.66
2023-01-31T11:16:32.797Z,100675.59
2023-01-31T11:19:05.870Z,100670.69
2023-01-31T11:21:38.127Z,100660.94
2023-01-31T11:24:18.054Z,100662.38
2023-01-31T11:26:56.250Z,100663.59
2023-01-31T11:29:30.661Z,100642.69
2023-01-31T11:32:03.005Z,100634.63
2023-01-31T11:34:33.884Z,100647.66
2023-01-31T11:37:08.418Z,100638.81
2023-01-31T11:39:39.763Z,100626.97
2023-01-31T11:42:15.175Z,100606.47
2023-01-31T11:44:58.797Z,100616.16
2023-01-31T11:47:39.387Z,100606.28
2023-01-31T11:50:19.965Z,100605.53
2023-01-31T11:52:55.859Z,100611.53
2023-01-31T11:55:25.191Z,100618.28
2023-01-31T11:58:02.489Z,100614.69
2023-01-31T12:00:35.091Z,100607.47
2023-01-31T12:03:08.994Z,100586.47
2023-01-31T12:05:45.183Z,100592.56
2023-01-31T12:08:32.305Z,100589.63
2023-01-31T12:11:05.001Z,100570.06
2023-01-31T12:13:48.297Z,100558.47
2023-01-31T12:16:22.237Z,100551.38
2023-01-31T12:19:07.401Z,100549.94
2023-01-31T12:22:02.028Z,100528.66
2023-01-31T12:24:46.943Z,100532.88
2023-01-31T12:27:40.203Z,100522.53
2023-01-31T12:30:49.711Z,100542.44
2023-01-31T12:33:40.775Z,100542.81
2023-01-31T12:36:27.343Z,100541.41
2023-01-31T12:39:17.347Z,100542.19
2023-01-31T12:42:03.511Z,100524.88
2023-01-31T12:44:46.549Z,100526.59
2023-01-31T12:47:51.544Z,100522.22
2023-01-31T12:50:45.770Z,100511.22
2023-01-31T12:53:48.462Z,100514.63
2023-01-31T12:56:42.310Z,100506.75
2023-01-31T12:59:29.409Z,100491.38
2023-01-31T13:02:12.286Z,100497.56
2023-01-31T13:04:50.182Z,100491.09
2023-01-31T13:07:31.967Z,100480.06
2023-01-31T13:10:06.182Z,100472.25
2023-01-31T13:12:37.308Z,100460.66
2023-01-31T13:15:18.908Z,100470.28
2023-01-31T13:17:56.110Z,100462.84
2023-01-31T13:20:36.757Z,100457.13
2023-01-31T13:23:14.567Z,100451.72
2023-01-31T13:25:51.370Z,100442.78
2023-01-31T13:28:27.068Z,100449.63
2023-01-31T13:30:59.834Z,100438.75
2023-01-31T13:33:37.310Z,100439.75
2023-01-31T13:36:20.781Z,100445.25
2023-01-31T13:38:50.270Z,100443.91
2023-01-31T13:41:29.809Z,100445.53
2023-01-31T13:44:00.081Z,100437.63
2023-01-31T13:46:38.084Z,100448.91
2023-01-31T13:49:11.862Z,100435.69
2023-01-31T13:51:48.859Z,100435.31
2023-01-31T13:54:23.731Z,100429.88
2023-01-31T13:56:56.735Z,100427.91
2023-01-31T13:59:29.501Z,100422.16
2023-01-31T14:02:02.785Z,100413.78
2023-01-31T14:04:40.118Z,100412.59
2023-01-31T14:07:25.454Z,100406.03
2023-01-31T14:10:37.261Z,100398.56
2023-01-31T14:13:42.985Z,100399.84
2023-01-31T14:16:40.106Z,100388.78
2023-01-31T14:20:03.355Z,100389.63
2023-01-31T14:22:35.870Z,100397.31
2023-01-31T14:25:16.169Z,100395.22
2023-01-31T14:28:01.378Z,100388.16
2023-01-31T14:30:41.110Z,100387.94
2023-01-31T14:33:29.059Z,100377.97
2023-01-31T14:36:45.536Z,100389.34
2023-01-31T14:40:07.511Z,100393.41
2023-01-31T14:43:18.900Z,100387.13
2023-01-31T14:46:38.664Z,100392.25
2023-01-31T14:49:58.796Z,100389.16
2023-01-31T14:52:46.114Z,100397.91
2023-01-31T14:55:41.009Z,100399.31
2023-01-31T14:58:21.736Z,100392.91
2023-01-31T15:00:55.819Z,100379.25
2023-01-31T15:03:29.509Z,100389.41
2023-01-31T15:06:11.581Z,100384.63
2023-01-31T15:08:45.748Z,100380.81
2023-01-31T15:11:44.429Z,100378.66
2023-01-31T15:14:36.119Z,100372.47
2023-01-31T15:17:31.590Z,100372.16
2023-01-31T15:20:16.337Z,100359.75
2023-01-31T15:22:47.825Z,100364.56
2023-01-31T15:25:35.494Z,100360.44
2023-01-31T15:28:06.725Z,100360.84
2023-01-31T15:30:37.761Z,100355.38
2023-01-31T15:33:14.584Z,100372.53
2023-01-31T15:35:53.059Z,100350.31
2023-01-31T15:38:30.784Z,100347.44
2023-01-31T15:41:25.531Z,100362.56
2023-01-31T15:43:57.843Z,100342.63
2023-01-31T15:46:31.200Z,100354.03
2023-01-31T15:49:00.527Z,100352.66
2023-01-31T15:51:30.076Z,100348.72
2023-01-31T15:54:06.939Z,100340.94
2023-01-31T15:56:41.592Z,100349.19
2023-01-31T15:59:16.272Z,100346.84
2023-01-31T16:01:49.887Z,100354.19
2023-01-31T16:04:18.756Z,100343.44
2023-01-31T16:06:48.817Z,100351.31
2023-01-31T16:09:27.723Z,100347.91
2023-01-31T16:11:57.590Z,100338.09
2023-01-31T16:14:28.653Z,100329.34
2023-01-31T16:17:00.969Z,100345.13
2023-01-31T16:19:33.497Z,100336.63
2023-01-31T16:22:01.855Z,100350.91
2023-01-31T16:24:32.142Z,100347.03
2023-01-31T16:27:04.156Z,100342.03
2023-01-31T16:29:42.148Z,100350.03
2023-01-31T16:32:21.056Z,100359.00
2023-01-31T16:34:57.946Z,100352.81
2023-01-31T16:37:36.877Z,100345.78
2023-01-31T16:40:21.053Z,100349.72
2023-01-31T16:42:49.901Z,100350.56
2023-01-31T16:45:34.716Z,100357.38
2023-01-31T16:48:26.707Z,100349.09
2023-01-31T16:50:57.543Z,100354.50
2023-01-31T16:53:30.478Z,100351.09
2023-01-31T16:56:24.154Z,100345.44
2023-01-31T16:58:56.280Z,100334.34
2023-01-31T17:01:30.695Z,100330.84
2023-01-31T17:04:18.475Z,100335.66
2023-01-31T17:06:52.219Z,100364.34
2023-01-31T17:09:29.055Z,100418.94
2023-01-31T17:11:59.026Z,100420.47
2023-01-31T17:14:27.520Z,100422.22
2023-01-31T17:16:57.307Z,100410.53
2023-01-31T17:19:25.723Z,100344.22
2023-01-31T17:21:57.043Z,100386.22
2023-01-31T17:24:25.388Z,100380.06
2023-01-31T17:26:54.192Z,100387.16
2023-01-31T17:29:23.351Z,100392.38
2023-01-31T17:31:56.260Z,100396.34
2023-01-31T17:34:24.449Z,100394.50
2023-01-31T17:36:52.757Z,100385.53
2023-01-31T17:39:21.163Z,100376.56
2023-01-31T17:41:49.743Z,100392.56
2023-01-31T17:44:22.374Z,100393.13
2023-01-31T17:46:50.574Z,100406.13
2023-01-31T17:49:20.606Z,100397.81
2023-01-31T17:51:49.358Z,100400.09
2023-01-31T17:54:17.801Z,100398.63
2023-01-31T17:56:46.118Z,100395.25
2023-01-31T17:59:25.302Z,100400.38
2023-01-31T18:01:54.826Z,100401.25
2023-01-31T18:04:24.630Z,100394.25
2023-01-31T18:06:53.127Z,100401.88
2023-01-31T18:09:21.613Z,100388.50
2023-01-31T18:11:50.219Z,100393.63
2023-01-31T18:14:21.743Z,100392.50
2023-01-31T18:16:54.165Z,100412.78
2023-01-31T18:19:24.241Z,100404.44
2023-01-31T18:21:55.194Z,100411.94
2023-01-31T18:24:24.405Z,100395.09
2023-01-31T18:26:53.333Z,100403.25
2023-01-31T18:29:23.978Z,100408.03
2023-01-31T18:31:55.258Z,100411.66
2023-01-31T18:34:25.333Z,100401.81
2023-01-31T18:36:53.580Z,100403.31
2023-01-31T18:39:22.342Z,100395.97
2023-01-31T18:41:50.629Z,100400.84
2023-01-31T18:44:19.901Z,100406.72
2023-01-31T18:46:48.774Z,100386.78
2023-01-31T18:49:17.959Z,100386.38
2023-01-31T18:51:49.586Z,100405.00
2023-01-31T18:54:17.995Z,100398.94
2023-01-31T18:56:46.305Z,100399.91
2023-01-31T18:59:14.598Z,100387.28
2023-01-31T19:01:43.675Z,100382.44
2023-01-31T19:04:12.109Z,100390.19
2023-01-31T19:06:41.567Z,100382.06
2023-01-31T19:09:11.564Z,100381.66
2023-01-31T19:11:41.791Z,100387.94
2023-01-31T19:14:13.884Z,100380.44
2023-01-31T19:16:45.030Z,100392.09
2023-01-31T19:19:13.729Z,100388.31
2023-01-31T19:21:42.419Z,100382.78
2023-01-31T19:24:15.460Z,100390.19
2023-01-31T19:26:44.721Z,100376.69
2023-01-31T19:29:16.682Z,100397.97
2023-01-31T19:31:46.100Z,100398.34
2023-01-31T19:34:14.436Z,100392.28
2023-01-31T19:36:44.891Z,100406.53
2023-01-31T19:39:14.653Z,100402.56
2023-01-31T19:41:43.440Z,100401.50
2023-01-31T19:44:12.148Z,100402.56
2023-01-31T19:46:40.702Z,100411.75
2023-01-31T19:49:08.965Z,100398.84
2023-01-31T19:51:38.089Z,100406.72
2023-01-31T19:54:06.957Z,100399.88
2023-01-31T19:56:38.364Z,100407.56
2023-01-31T19:59:07.090Z,100410.16
2023-01-31T20:01:35.726Z,100395.72
2023-01-31T20:04:04.092Z,100411.66
2023-01-31T20:06:36.206Z,100407.38
2023-01-31T20:09:07.418Z,100413.19
2023-01-31T20:11:37.192Z,100425.13
2023-01-31T20:14:06.671Z,100417.88
2023-01-31T20:16:35.524Z,100434.56
2023-01-31T20:19:06.639Z,100429.09
2023-01-31T20:21:35.147Z,100420.47
2023-01-31T20:24:03.460Z,100428.22
2023-01-31T20:26:31.863Z,100408.84
2023-01-31T20:29:01.612Z,100415.03
2023-01-31T20:31:29.945Z,100409.34
2023-01-31T20:33:58.178Z,100403.41
2023-01-31T20:36:26.468Z,100402.59
2023-01-31T20:38:55.114Z,100422.06
2023-01-31T20:41:23.455Z,100420.53
2023-01-31T20:43:51.775Z,100435.63
2023-01-31T20:46:21.975Z,100430.81
2023-01-31T20:48:50.449Z,100431.75
2023-01-31T20:51:18.844Z,100436.13
2023-01-31T20:53:47.196Z,100436.13
2023-01-31T20:56:15.637Z,100429.25
2023-01-31T20:58:44.838Z,100434.09
2023-01-31T21:01:13.609Z,100424.50
2023-01-31T21:03:43.289Z,100441.97
2023-01-31T21:06:11.919Z,100442.31
2023-01-31T21:08:41.325Z,100442.91
2023-01-31T21:11:14.042Z,100440.53
2023-01-31T21:13:43.896Z,100424.09
2023-01-31T21:16:15.602Z,100432.06
2023-01-31T21:18:45.797Z,100422.50
2023-01-31T21:21:23.062Z,100433.97
2023-01-31T21:23:53.038Z,100427.31
2023-01-31T21:26:25.605Z,100421.44
2023-01-31T21:28:55.214Z,100425.53
2023-01-31T21:31:23.674Z,100438.56
2023-01-31T21:33:53.867Z,100443.31
2023-01-31T21:36:25.448Z,100436.47
2023-01-31T21:38:54.171Z,100443.16
2023-01-31T21:41:40.129Z,100414.84
2023-01-31T21:44:08.414Z,100420.06
2023-01-31T21:46:36.859Z,100390.75
2023-01-31T21:49:06.804Z,100382.38
2023-01-31T21:51:35.102Z,100402.47
2023-01-31T21:54:03.389Z,100409.22
2023-01-31T21:56:31.738Z,100400.25
2023-01-31T21:59:00.271Z,100413.59
2023-01-31T22:01:30.889Z,100421.41
2023-01-31T22:04:00.105Z,100422.50
2023-01-31T22:06:36.619Z,100424.06
2023-01-31T22:09:07.553Z,100420.44
2023-01-31T22:11:35.981Z,100418.56
2023-01-31T22:14:06.667Z,100428.75
2023-01-31T22:16:35.285Z,100442.53
2023-01-31T22:19:03.954Z,100431.09
2023-01-31T22:21:36.348Z,100449.78
2023-01-31T22:24:08.697Z,100440.84
2023-01-31T22:26:41.604Z,100441.81
2023-01-31T22:29:12.606Z,100432.38
2023-01-31T22:31:41.508Z,100440.88
2023-01-31T22:34:14.904Z,100448.06
2023-01-31T22:36:44.767Z,100447.91
2023-01-31T22:39:16.259Z,100441.06
2023-01-31T22:41:45.192Z,100443.47
2023-01-31T22:44:13.707Z,100436.78
2023-01-31T22:46:42.162Z,100456.84
2023-01-31T22:49:10.576Z,100453.63
2023-01-31T22:51:38.843Z,100456.88
2023-01-31T22:54:09.101Z,100464.34
2023-01-31T22:56:37.589Z,100443.94
2023-01-31T22:59:08.427Z,100449.91
2023-01-31T23:01:39.623Z,100455.81
2023-01-31T23:04:11.131Z,100455.03
2023-01-31T23:06:39.578Z,100439.94
2023-01-31T23:09:09.466Z,100453.38
2023-01-31T23:11:37.745Z,100438.72
2023-01-31T23:14:06.116Z,100435.69
2023-01-31T23:16:51.773Z,100449.91
2023-01-31T23:19:20.150Z,100430.13
2023-01-31T23:21:49.326Z,100429.03
2023-01-31T23:24:19.921Z,100444.97
2023-01-31T23:26:48.520Z,100443.63
2023-01-31T23:29:17.156Z,100454.50
2023-01-31T23:31:46.207Z,100460.66
2023-01-31T23:34:14.735Z,100445.56
2023-01-31T23:36:43.067Z,100457.66
2023-01-31T23:39:11.997Z,100452.41
2023-01-31T23:41:41.646Z,100453.16
2023-01-31T23:44:10.441Z,100433.53
2023-01-31T23:46:38.844Z,100460.41
2023-01-31T23:49:07.404Z,100441.06
2023-01-31T23:51:36.122Z,100443.88
2023-01-31T23:54:04.658Z,100445.88
2023-01-31T23:56:32.945Z,100446.34
2023-01-31T23:59:02.770Z,100457.75
